sensor_id;sensor_type;location;lat;lon;timestamp;P1;durP1;ratioP1;P2;durP2;ratioP2
52956;SDS011;38819;42.692;23.342;2023-09-19T00:00:59;7.00;;;4.03;;
52956;SDS011;38819;42.692;23.342;2023-09-19T00:03:25;4.50;;;3.55;;
52956;SDS011;38819;42.692;23.342;2023-09-19T00:05:53;7.30;;;3.80;;
52956;SDS011;38819;42.692;23.342;2023-09-19T00:08:20;4.30;;;3.70;;
52956;SDS011;38819;42.692;23.342;2023-09-19T00:10:49;8.05;;;4.10;;
52956;SDS011;38819;42.692;23.342;2023-09-19T00:13:15;5.45;;;3.65;;
52956;SDS011;38819;42.692;23.342;2023-09-19T00:15:43;11.05;;;4.55;;
52956;SDS011;38819;42.692;23.342;2023-09-19T00:18:13;4.30;;;3.90;;
52956;SDS011;38819;42.692;23.342;2023-09-19T00:20:40;4.40;;;4.00;;
52956;SDS011;38819;42.692;23.342;2023-09-19T00:23:07;6.55;;;3.72;;
52956;SDS011;38819;42.692;23.342;2023-09-19T00:25:38;5.13;;;4.00;;
52956;SDS011;38819;42.692;23.342;2023-09-19T00:28:05;9.13;;;3.50;;
52956;SDS011;38819;42.692;23.342;2023-09-19T00:30:32;7.13;;;4.22;;
52956;SDS011;38819;42.692;23.342;2023-09-19T00:32:58;3.70;;;3.40;;
52956;SDS011;38819;42.692;23.342;2023-09-19T00:35:24;9.23;;;4.65;;
52956;SDS011;38819;42.692;23.342;2023-09-19T00:37:49;9.85;;;4.07;;
52956;SDS011;38819;42.692;23.342;2023-09-19T00:40:15;5.00;;;3.60;;
52956;SDS011;38819;42.692;23.342;2023-09-19T00:42:42;4.72;;;4.05;;
52956;SDS011;38819;42.692;23.342;2023-09-19T00:45:08;5.05;;;4.20;;
52956;SDS011;38819;42.692;23.342;2023-09-19T00:47:38;13.60;;;4.45;;
52956;SDS011;38819;42.692;23.342;2023-09-19T00:50:09;6.85;;;4.82;;
52956;SDS011;38819;42.692;23.342;2023-09-19T00:52:36;4.13;;;3.72;;
52956;SDS011;38819;42.692;23.342;2023-09-19T00:57:30;6.90;;;4.43;;
52956;SDS011;38819;42.692;23.342;2023-09-19T00:59:57;8.27;;;3.65;;
52956;SDS011;38819;42.692;23.342;2023-09-19T01:02:24;5.97;;;4.63;;
52956;SDS011;38819;42.692;23.342;2023-09-19T01:04:52;10.10;;;4.43;;
52956;SDS011;38819;42.692;23.342;2023-09-19T01:07:18;5.05;;;4.13;;
52956;SDS011;38819;42.692;23.342;2023-09-19T01:09:44;7.78;;;4.47;;
52956;SDS011;38819;42.692;23.342;2023-09-19T01:12:09;7.50;;;4.60;;
52956;SDS011;38819;42.692;23.342;2023-09-19T01:14:44;5.57;;;4.47;;
52956;SDS011;38819;42.692;23.342;2023-09-19T01:17:30;6.55;;;4.57;;
52956;SDS011;38819;42.692;23.342;2023-09-19T01:22:56;7.28;;;5.05;;
52956;SDS011;38819;42.692;23.342;2023-09-19T01:30:58;9.13;;;4.70;;
52956;SDS011;38819;42.692;23.342;2023-09-19T01:33:28;8.98;;;4.78;;
52956;SDS011;38819;42.692;23.342;2023-09-19T01:36:16;7.00;;;4.68;;
52956;SDS011;38819;42.692;23.342;2023-09-19T01:38:41;9.77;;;4.85;;
52956;SDS011;38819;42.692;23.342;2023-09-19T01:41:10;7.32;;;5.40;;
52956;SDS011;38819;42.692;23.342;2023-09-19T01:43:41;8.20;;;5.65;;
52956;SDS011;38819;42.692;23.342;2023-09-19T01:49:04;6.65;;;4.80;;
52956;SDS011;38819;42.692;23.342;2023-09-19T01:51:37;7.93;;;5.70;;
52956;SDS011;38819;42.692;23.342;2023-09-19T01:54:16;7.13;;;5.43;;
52956;SDS011;38819;42.692;23.342;2023-09-19T01:56:49;5.88;;;5.18;;
52956;SDS011;38819;42.692;23.342;2023-09-19T01:59:24;7.22;;;5.82;;
52956;SDS011;38819;42.692;23.342;2023-09-19T02:01:53;10.85;;;5.38;;
52956;SDS011;38819;42.692;23.342;2023-09-19T02:04:20;7.88;;;5.40;;
52956;SDS011;38819;42.692;23.342;2023-09-19T02:06:46;8.80;;;4.90;;
52956;SDS011;38819;42.692;23.342;2023-09-19T02:09:12;10.77;;;5.30;;
52956;SDS011;38819;42.692;23.342;2023-09-19T02:11:42;8.93;;;5.47;;
52956;SDS011;38819;42.692;23.342;2023-09-19T02:14:07;10.15;;;5.60;;
52956;SDS011;38819;42.692;23.342;2023-09-19T02:16:33;11.70;;;5.70;;
52956;SDS011;38819;42.692;23.342;2023-09-19T02:19:02;8.40;;;5.18;;
52956;SDS011;38819;42.692;23.342;2023-09-19T02:21:30;7.97;;;6.05;;
52956;SDS011;38819;42.692;23.342;2023-09-19T02:23:57;11.68;;;5.32;;
52956;SDS011;38819;42.692;23.342;2023-09-19T02:26:23;9.80;;;6.28;;
52956;SDS011;38819;42.692;23.342;2023-09-19T02:28:49;8.10;;;5.53;;
52956;SDS011;38819;42.692;23.342;2023-09-19T02:31:14;8.40;;;5.20;;
52956;SDS011;38819;42.692;23.342;2023-09-19T02:33:41;7.15;;;5.30;;
52956;SDS011;38819;42.692;23.342;2023-09-19T02:36:07;10.88;;;5.30;;
52956;SDS011;38819;42.692;23.342;2023-09-19T02:38:33;10.23;;;4.82;;
52956;SDS011;38819;42.692;23.342;2023-09-19T02:40:59;7.47;;;5.25;;
52956;SDS011;38819;42.692;23.342;2023-09-19T02:43:24;12.00;;;5.15;;
52956;SDS011;38819;42.692;23.342;2023-09-19T02:45:50;8.95;;;5.32;;
52956;SDS011;38819;42.692;23.342;2023-09-19T02:48:18;6.68;;;4.82;;
52956;SDS011;38819;42.692;23.342;2023-09-19T02:50:44;5.70;;;5.00;;
52956;SDS011;38819;42.692;23.342;2023-09-19T02:53:09;9.10;;;5.07;;
52956;SDS011;38819;42.692;23.342;2023-09-19T02:55:37;6.88;;;5.50;;
52956;SDS011;38819;42.692;23.342;2023-09-19T02:58:05;8.80;;;4.90;;
52956;SDS011;38819;42.692;23.342;2023-09-19T03:00:32;8.95;;;4.53;;
52956;SDS011;38819;42.692;23.342;2023-09-19T03:03:00;9.20;;;4.40;;
52956;SDS011;38819;42.692;23.342;2023-09-19T03:05:27;5.97;;;5.07;;
52956;SDS011;38819;42.692;23.342;2023-09-19T03:07:55;5.95;;;5.10;;
52956;SDS011;38819;42.692;23.342;2023-09-19T03:10:21;7.15;;;5.25;;
52956;SDS011;38819;42.692;23.342;2023-09-19T03:12:48;7.83;;;5.10;;
52956;SDS011;38819;42.692;23.342;2023-09-19T03:15:14;7.68;;;5.47;;
52956;SDS011;38819;42.692;23.342;2023-09-19T03:17:47;6.15;;;5.20;;
52956;SDS011;38819;42.692;23.342;2023-09-19T03:20:13;6.65;;;5.32;;
52956;SDS011;38819;42.692;23.342;2023-09-19T03:22:42;5.57;;;4.88;;
52956;SDS011;38819;42.692;23.342;2023-09-19T03:25:11;7.72;;;5.05;;
52956;SDS011;38819;42.692;23.342;2023-09-19T03:27:38;6.82;;;5.03;;
52956;SDS011;38819;42.692;23.342;2023-09-19T03:30:04;7.80;;;4.80;;
52956;SDS011;38819;42.692;23.342;2023-09-19T03:32:37;9.32;;;5.65;;
52956;SDS011;38819;42.692;23.342;2023-09-19T03:35:08;7.45;;;5.70;;
52956;SDS011;38819;42.692;23.342;2023-09-19T03:37:39;7.93;;;5.50;;
52956;SDS011;38819;42.692;23.342;2023-09-19T03:40:05;12.20;;;5.80;;
52956;SDS011;38819;42.692;23.342;2023-09-19T03:42:32;8.87;;;6.17;;
52956;SDS011;38819;42.692;23.342;2023-09-19T03:44:57;6.70;;;5.18;;
52956;SDS011;38819;42.692;23.342;2023-09-19T03:47:24;8.45;;;5.40;;
52956;SDS011;38819;42.692;23.342;2023-09-19T03:49:50;10.80;;;5.95;;
52956;SDS011;38819;42.692;23.342;2023-09-19T03:52:15;8.88;;;5.13;;
52956;SDS011;38819;42.692;23.342;2023-09-19T03:54:41;6.78;;;5.53;;
52956;SDS011;38819;42.692;23.342;2023-09-19T03:57:06;9.48;;;5.30;;
52956;SDS011;38819;42.692;23.342;2023-09-19T03:59:32;9.40;;;5.80;;
52956;SDS011;38819;42.692;23.342;2023-09-19T04:01:57;7.05;;;5.13;;
52956;SDS011;38819;42.692;23.342;2023-09-19T04:04:23;9.27;;;6.07;;
52956;SDS011;38819;42.692;23.342;2023-09-19T04:06:50;8.30;;;5.65;;
52956;SDS011;38819;42.692;23.342;2023-09-19T04:09:16;8.98;;;5.40;;
52956;SDS011;38819;42.692;23.342;2023-09-19T04:11:41;7.93;;;5.70;;
52956;SDS011;38819;42.692;23.342;2023-09-19T04:14:07;14.38;;;7.32;;
52956;SDS011;38819;42.692;23.342;2023-09-19T04:16:32;14.32;;;6.50;;
52956;SDS011;38819;42.692;23.342;2023-09-19T04:18:57;10.27;;;6.90;;
52956;SDS011;38819;42.692;23.342;2023-09-19T04:21:23;10.18;;;7.15;;
52956;SDS011;38819;42.692;23.342;2023-09-19T04:23:48;11.65;;;6.93;;
52956;SDS011;38819;42.692;23.342;2023-09-19T04:26:14;10.80;;;7.50;;
52956;SDS011;38819;42.692;23.342;2023-09-19T04:33:35;15.00;;;7.70;;
52956;SDS011;38819;42.692;23.342;2023-09-19T04:36:01;16.65;;;6.85;;
52956;SDS011;38819;42.692;23.342;2023-09-19T04:38:30;9.40;;;6.20;;
52956;SDS011;38819;42.692;23.342;2023-09-19T04:40:58;15.35;;;7.28;;
52956;SDS011;38819;42.692;23.342;2023-09-19T04:43:24;14.98;;;7.43;;
52956;SDS011;38819;42.692;23.342;2023-09-19T04:45:50;8.18;;;5.97;;
52956;SDS011;38819;42.692;23.342;2023-09-19T04:48:19;12.02;;;6.93;;
52956;SDS011;38819;42.692;23.342;2023-09-19T04:50:44;10.10;;;5.93;;
52956;SDS011;38819;42.692;23.342;2023-09-19T04:53:10;11.25;;;5.78;;
52956;SDS011;38819;42.692;23.342;2023-09-19T04:55:35;13.38;;;5.75;;
52956;SDS011;38819;42.692;23.342;2023-09-19T04:58:01;7.10;;;5.72;;
52956;SDS011;38819;42.692;23.342;2023-09-19T05:00:27;10.57;;;5.88;;
52956;SDS011;38819;42.692;23.342;2023-09-19T05:02:55;8.95;;;5.93;;
52956;SDS011;38819;42.692;23.342;2023-09-19T05:05:22;7.20;;;5.90;;
52956;SDS011;38819;42.692;23.342;2023-09-19T05:07:48;9.88;;;6.15;;
52956;SDS011;38819;42.692;23.342;2023-09-19T05:10:15;5.20;;;4.70;;
52956;SDS011;38819;42.692;23.342;2023-09-19T05:12:43;8.25;;;5.05;;
52956;SDS011;38819;42.692;23.342;2023-09-19T05:15:12;8.70;;;6.40;;
52956;SDS011;38819;42.692;23.342;2023-09-19T05:17:39;11.63;;;6.68;;
52956;SDS011;38819;42.692;23.342;2023-09-19T05:20:05;9.15;;;6.85;;
52956;SDS011;38819;42.692;23.342;2023-09-19T05:22:49;9.50;;;6.70;;
52956;SDS011;38819;42.692;23.342;2023-09-19T05:25:15;8.43;;;6.22;;
52956;SDS011;38819;42.692;23.342;2023-09-19T05:27:43;11.93;;;7.53;;
52956;SDS011;38819;42.692;23.342;2023-09-19T05:30:09;11.85;;;6.10;;
52956;SDS011;38819;42.692;23.342;2023-09-19T05:32:35;13.05;;;6.38;;
52956;SDS011;38819;42.692;23.342;2023-09-19T05:35:00;8.13;;;5.13;;
52956;SDS011;38819;42.692;23.342;2023-09-19T05:37:26;9.32;;;5.85;;
52956;SDS011;38819;42.692;23.342;2023-09-19T05:39:51;7.75;;;5.30;;
52956;SDS011;38819;42.692;23.342;2023-09-19T05:42:18;6.60;;;5.35;;
52956;SDS011;38819;42.692;23.342;2023-09-19T05:44:44;7.13;;;4.97;;
52956;SDS011;38819;42.692;23.342;2023-09-19T05:47:09;5.05;;;4.20;;
52956;SDS011;38819;42.692;23.342;2023-09-19T05:49:35;7.38;;;4.22;;
52956;SDS011;38819;42.692;23.342;2023-09-19T05:52:06;5.97;;;3.60;;
52956;SDS011;38819;42.692;23.342;2023-09-19T05:54:32;8.57;;;4.35;;
52956;SDS011;38819;42.692;23.342;2023-09-19T05:59:24;12.35;;;4.78;;
52956;SDS011;38819;42.692;23.342;2023-09-19T06:01:49;11.65;;;4.72;;
52956;SDS011;38819;42.692;23.342;2023-09-19T06:04:17;8.45;;;4.82;;
52956;SDS011;38819;42.692;23.342;2023-09-19T06:06:44;17.90;;;5.60;;
52956;SDS011;38819;42.692;23.342;2023-09-19T06:09:09;5.55;;;3.67;;
52956;SDS011;38819;42.692;23.342;2023-09-19T06:11:35;6.38;;;4.10;;
52956;SDS011;38819;42.692;23.342;2023-09-19T06:14:01;6.35;;;4.22;;
52956;SDS011;38819;42.692;23.342;2023-09-19T06:16:28;5.32;;;4.15;;
52956;SDS011;38819;42.692;23.342;2023-09-19T06:18:54;6.00;;;3.67;;
52956;SDS011;38819;42.692;23.342;2023-09-19T06:21:21;6.65;;;4.57;;
52956;SDS011;38819;42.692;23.342;2023-09-19T06:23:47;8.63;;;4.20;;
52956;SDS011;38819;42.692;23.342;2023-09-19T06:26:12;5.10;;;4.35;;
52956;SDS011;38819;42.692;23.342;2023-09-19T06:28:38;7.95;;;4.78;;
52956;SDS011;38819;42.692;23.342;2023-09-19T06:31:04;6.53;;;3.78;;
52956;SDS011;38819;42.692;23.342;2023-09-19T06:33:34;13.82;;;4.57;;
52956;SDS011;38819;42.692;23.342;2023-09-19T06:36:06;7.53;;;4.10;;
52956;SDS011;38819;42.692;23.342;2023-09-19T06:38:32;13.27;;;4.55;;
52956;SDS011;38819;42.692;23.342;2023-09-19T06:41:01;9.98;;;3.88;;
52956;SDS011;38819;42.692;23.342;2023-09-19T06:43:29;9.77;;;4.78;;
52956;SDS011;38819;42.692;23.342;2023-09-19T06:45:55;7.70;;;4.82;;
52956;SDS011;38819;42.692;23.342;2023-09-19T06:48:21;5.95;;;4.53;;
52956;SDS011;38819;42.692;23.342;2023-09-19T06:50:46;12.75;;;4.82;;
52956;SDS011;38819;42.692;23.342;2023-09-19T06:53:13;9.47;;;5.30;;
52956;SDS011;38819;42.692;23.342;2023-09-19T06:55:38;15.02;;;4.97;;
52956;SDS011;38819;42.692;23.342;2023-09-19T06:58:04;17.77;;;4.40;;
52956;SDS011;38819;42.692;23.342;2023-09-19T07:00:31;6.90;;;3.97;;
52956;SDS011;38819;42.692;23.342;2023-09-19T07:03:02;6.47;;;4.03;;
52956;SDS011;38819;42.692;23.342;2023-09-19T07:05:38;9.35;;;4.43;;
52956;SDS011;38819;42.692;23.342;2023-09-19T07:08:05;7.80;;;4.30;;
52956;SDS011;38819;42.692;23.342;2023-09-19T07:10:32;6.63;;;4.05;;
52956;SDS011;38819;42.692;23.342;2023-09-19T07:12:59;5.60;;;3.78;;
52956;SDS011;38819;42.692;23.342;2023-09-19T07:15:34;4.18;;;3.55;;
52956;SDS011;38819;42.692;23.342;2023-09-19T07:18:11;4.93;;;3.92;;
52956;SDS011;38819;42.692;23.342;2023-09-19T07:20:41;6.22;;;5.25;;
52956;SDS011;38819;42.692;23.342;2023-09-19T07:23:13;6.35;;;4.45;;
52956;SDS011;38819;42.692;23.342;2023-09-19T07:25:40;37.73;;;7.93;;
52956;SDS011;38819;42.692;23.342;2023-09-19T07:28:05;13.20;;;4.60;;
52956;SDS011;38819;42.692;23.342;2023-09-19T07:30:31;14.63;;;4.82;;
52956;SDS011;38819;42.692;23.342;2023-09-19T07:32:57;12.25;;;7.35;;
52956;SDS011;38819;42.692;23.342;2023-09-19T07:35:22;7.45;;;4.25;;
52956;SDS011;38819;42.692;23.342;2023-09-19T07:37:48;8.30;;;5.07;;
52956;SDS011;38819;42.692;23.342;2023-09-19T07:40:17;7.20;;;4.63;;
52956;SDS011;38819;42.692;23.342;2023-09-19T07:42:44;7.80;;;3.75;;
52956;SDS011;38819;42.692;23.342;2023-09-19T07:45:12;6.68;;;4.03;;
52956;SDS011;38819;42.692;23.342;2023-09-19T07:47:48;7.72;;;3.92;;
52956;SDS011;38819;42.692;23.342;2023-09-19T07:50:15;6.13;;;3.75;;
52956;SDS011;38819;42.692;23.342;2023-09-19T07:52:43;6.25;;;4.43;;
52956;SDS011;38819;42.692;23.342;2023-09-19T07:55:09;10.02;;;4.32;;
52956;SDS011;38819;42.692;23.342;2023-09-19T07:57:45;8.65;;;4.13;;
52956;SDS011;38819;42.692;23.342;2023-09-19T08:00:11;15.35;;;3.88;;
52956;SDS011;38819;42.692;23.342;2023-09-19T08:02:38;9.38;;;4.85;;
52956;SDS011;38819;42.692;23.342;2023-09-19T08:05:04;5.35;;;3.88;;
52956;SDS011;38819;42.692;23.342;2023-09-19T08:07:36;6.03;;;3.78;;
52956;SDS011;38819;42.692;23.342;2023-09-19T08:10:06;7.20;;;3.90;;
52956;SDS011;38819;42.692;23.342;2023-09-19T08:12:36;11.27;;;3.92;;
52956;SDS011;38819;42.692;23.342;2023-09-19T08:15:04;5.40;;;4.20;;
52956;SDS011;38819;42.692;23.342;2023-09-19T08:17:34;6.72;;;4.03;;
52956;SDS011;38819;42.692;23.342;2023-09-19T08:20:01;8.70;;;4.22;;
52956;SDS011;38819;42.692;23.342;2023-09-19T08:22:30;7.50;;;3.95;;
52956;SDS011;38819;42.692;23.342;2023-09-19T08:24:57;6.78;;;4.40;;
52956;SDS011;38819;42.692;23.342;2023-09-19T08:27:23;6.15;;;4.18;;
52956;SDS011;38819;42.692;23.342;2023-09-19T08:29:52;7.22;;;4.35;;
52956;SDS011;38819;42.692;23.342;2023-09-19T08:32:17;8.85;;;4.38;;
52956;SDS011;38819;42.692;23.342;2023-09-19T08:34:48;9.15;;;4.13;;
52956;SDS011;38819;42.692;23.342;2023-09-19T08:37:14;9.20;;;4.18;;
52956;SDS011;38819;42.692;23.342;2023-09-19T08:39:40;11.60;;;4.85;;
52956;SDS011;38819;42.692;23.342;2023-09-19T08:42:06;6.70;;;4.25;;
52956;SDS011;38819;42.692;23.342;2023-09-19T08:44:35;8.13;;;4.45;;
52956;SDS011;38819;42.692;23.342;2023-09-19T08:47:11;7.53;;;4.68;;
52956;SDS011;38819;42.692;23.342;2023-09-19T08:53:03;12.93;;;5.05;;
52956;SDS011;38819;42.692;23.342;2023-09-19T08:55:37;12.35;;;5.53;;
52956;SDS011;38819;42.692;23.342;2023-09-19T08:58:06;9.02;;;4.43;;
52956;SDS011;38819;42.692;23.342;2023-09-19T09:00:35;6.90;;;4.55;;
52956;SDS011;38819;42.692;23.342;2023-09-19T09:03:01;9.75;;;4.85;;
52956;SDS011;38819;42.692;23.342;2023-09-19T09:07:55;32.33;;;6.00;;
52956;SDS011;38819;42.692;23.342;2023-09-19T09:10:22;6.80;;;3.95;;
52956;SDS011;38819;42.692;23.342;2023-09-19T09:12:51;7.13;;;4.73;;
52956;SDS011;38819;42.692;23.342;2023-09-19T09:15:21;7.63;;;4.22;;
52956;SDS011;38819;42.692;23.342;2023-09-19T09:17:48;6.70;;;4.53;;
52956;SDS011;38819;42.692;23.342;2023-09-19T09:20:15;6.25;;;4.93;;
52956;SDS011;38819;42.692;23.342;2023-09-19T09:22:51;9.63;;;4.93;;
52956;SDS011;38819;42.692;23.342;2023-09-19T09:25:19;8.52;;;4.30;;
52956;SDS011;38819;42.692;23.342;2023-09-19T09:27:58;10.77;;;4.22;;
52956;SDS011;38819;42.692;23.342;2023-09-19T09:30:34;8.35;;;4.50;;
52956;SDS011;38819;42.692;23.342;2023-09-19T09:33:09;9.80;;;5.15;;
52956;SDS011;38819;42.692;23.342;2023-09-19T09:35:48;7.78;;;4.05;;
52956;SDS011;38819;42.692;23.342;2023-09-19T09:38:21;7.35;;;4.30;;
52956;SDS011;38819;42.692;23.342;2023-09-19T09:40:53;7.60;;;4.78;;
52956;SDS011;38819;42.692;23.342;2023-09-19T09:43:34;5.55;;;4.60;;
52956;SDS011;38819;42.692;23.342;2023-09-19T09:46:06;9.70;;;4.53;;
52956;SDS011;38819;42.692;23.342;2023-09-19T09:54:22;13.00;;;5.35;;
52956;SDS011;38819;42.692;23.342;2023-09-19T09:56:55;9.17;;;4.93;;
52956;SDS011;38819;42.692;23.342;2023-09-19T10:02:29;15.80;;;5.03;;
52956;SDS011;38819;42.692;23.342;2023-09-19T10:05:11;11.13;;;4.65;;
52956;SDS011;38819;42.692;23.342;2023-09-19T10:08:11;6.47;;;4.05;;
52956;SDS011;38819;42.692;23.342;2023-09-19T10:10:38;6.65;;;4.15;;
52956;SDS011;38819;42.692;23.342;2023-09-19T10:13:08;8.20;;;4.20;;
52956;SDS011;38819;42.692;23.342;2023-09-19T10:15:39;5.22;;;3.80;;
52956;SDS011;38819;42.692;23.342;2023-09-19T10:18:07;8.02;;;3.90;;
52956;SDS011;38819;42.692;23.342;2023-09-19T10:20:39;9.82;;;4.13;;
52956;SDS011;38819;42.692;23.342;2023-09-19T10:23:09;10.57;;;4.35;;
52956;SDS011;38819;42.692;23.342;2023-09-19T10:25:39;6.82;;;4.60;;
52956;SDS011;38819;42.692;23.342;2023-09-19T10:28:06;8.32;;;4.60;;
52956;SDS011;38819;42.692;23.342;2023-09-19T10:30:36;9.90;;;4.40;;
52956;SDS011;38819;42.692;23.342;2023-09-19T10:33:07;7.05;;;3.90;;
52956;SDS011;38819;42.692;23.342;2023-09-19T10:35:33;6.47;;;4.20;;
52956;SDS011;38819;42.692;23.342;2023-09-19T10:38:05;5.15;;;3.65;;
52956;SDS011;38819;42.692;23.342;2023-09-19T10:40:32;7.32;;;4.20;;
52956;SDS011;38819;42.692;23.342;2023-09-19T10:43:02;8.47;;;4.73;;
52956;SDS011;38819;42.692;23.342;2023-09-19T10:45:33;44.70;;;6.85;;
52956;SDS011;38819;42.692;23.342;2023-09-19T10:48:03;12.00;;;4.57;;
52956;SDS011;38819;42.692;23.342;2023-09-19T10:50:31;8.90;;;4.88;;
52956;SDS011;38819;42.692;23.342;2023-09-19T10:53:29;10.82;;;4.82;;
52956;SDS011;38819;42.692;23.342;2023-09-19T10:56:07;11.02;;;4.45;;
52956;SDS011;38819;42.692;23.342;2023-09-19T10:58:42;7.63;;;4.22;;
52956;SDS011;38819;42.692;23.342;2023-09-19T11:01:09;7.30;;;4.38;;
52956;SDS011;38819;42.692;23.342;2023-09-19T11:03:40;9.05;;;4.35;;
52956;SDS011;38819;42.692;23.342;2023-09-19T11:06:12;6.85;;;3.88;;
52956;SDS011;38819;42.692;23.342;2023-09-19T11:30:48;6.75;;;4.15;;
52956;SDS011;38819;42.692;23.342;2023-09-19T11:33:24;7.93;;;4.70;;
52956;SDS011;38819;42.692;23.342;2023-09-19T11:36:16;6.40;;;4.00;;
52956;SDS011;38819;42.692;23.342;2023-09-19T11:41:52;11.43;;;4.10;;
52956;SDS011;38819;42.692;23.342;2023-09-19T11:47:14;4.88;;;3.90;;
52956;SDS011;38819;42.692;23.342;2023-09-19T11:49:17;13.38;;;4.00;;
52956;SDS011;38819;42.692;23.342;2023-09-19T11:51:50;6.05;;;4.15;;
52956;SDS011;38819;42.692;23.342;2023-09-19T11:54:20;6.53;;;5.00;;
52956;SDS011;38819;42.692;23.342;2023-09-19T11:56:50;7.82;;;4.15;;
52956;SDS011;38819;42.692;23.342;2023-09-19T11:59:23;7.03;;;4.70;;
52956;SDS011;38819;42.692;23.342;2023-09-19T12:01:53;6.47;;;4.22;;
52956;SDS011;38819;42.692;23.342;2023-09-19T12:04:42;9.27;;;4.20;;
52956;SDS011;38819;42.692;23.342;2023-09-19T12:07:16;10.13;;;4.47;;
52956;SDS011;38819;42.692;23.342;2023-09-19T12:12:18;11.25;;;4.90;;
52956;SDS011;38819;42.692;23.342;2023-09-19T12:14:50;10.38;;;4.10;;
52956;SDS011;38819;42.692;23.342;2023-09-19T12:17:16;10.27;;;4.50;;
52956;SDS011;38819;42.692;23.342;2023-09-19T12:19:49;15.20;;;4.13;;
52956;SDS011;38819;42.692;23.342;2023-09-19T12:22:16;7.40;;;5.13;;
52956;SDS011;38819;42.692;23.342;2023-09-19T12:24:43;9.57;;;4.70;;
52956;SDS011;38819;42.692;23.342;2023-09-19T12:27:09;10.00;;;6.80;;
52956;SDS011;38819;42.692;23.342;2023-09-19T12:32:34;6.47;;;4.18;;
52956;SDS011;38819;42.692;23.342;2023-09-19T12:35:00;5.70;;;3.80;;
52956;SDS011;38819;42.692;23.342;2023-09-19T12:37:32;12.98;;;5.80;;
52956;SDS011;38819;42.692;23.342;2023-09-19T12:40:07;6.45;;;4.57;;
52956;SDS011;38819;42.692;23.342;2023-09-19T12:42:42;9.50;;;4.97;;
52956;SDS011;38819;42.692;23.342;2023-09-19T12:47:35;7.25;;;4.15;;
52956;SDS011;38819;42.692;23.342;2023-09-19T12:57:57;10.25;;;4.60;;
52956;SDS011;38819;42.692;23.342;2023-09-19T13:00:34;6.40;;;3.67;;
52956;SDS011;38819;42.692;23.342;2023-09-19T13:03:10;7.25;;;4.55;;
52956;SDS011;38819;42.692;23.342;2023-09-19T13:05:56;13.98;;;4.63;;
52956;SDS011;38819;42.692;23.342;2023-09-19T13:08:28;4.43;;;4.03;;
52956;SDS011;38819;42.692;23.342;2023-09-19T13:13:36;5.10;;;4.32;;
52956;SDS011;38819;42.692;23.342;2023-09-19T13:16:02;8.35;;;4.82;;
52956;SDS011;38819;42.692;23.342;2023-09-19T13:18:40;9.15;;;4.30;;
52956;SDS011;38819;42.692;23.342;2023-09-19T13:21:08;8.07;;;4.38;;
52956;SDS011;38819;42.692;23.342;2023-09-19T13:23:37;8.23;;;4.32;;
52956;SDS011;38819;42.692;23.342;2023-09-19T13:26:03;5.03;;;4.20;;
52956;SDS011;38819;42.692;23.342;2023-09-19T13:28:31;8.50;;;4.70;;
52956;SDS011;38819;42.692;23.342;2023-09-19T13:30:56;9.20;;;4.10;;
52956;SDS011;38819;42.692;23.342;2023-09-19T13:33:22;8.65;;;4.35;;
52956;SDS011;38819;42.692;23.342;2023-09-19T13:35:47;7.55;;;4.50;;
52956;SDS011;38819;42.692;23.342;2023-09-19T13:38:13;11.80;;;4.57;;
52956;SDS011;38819;42.692;23.342;2023-09-19T13:40:39;9.15;;;4.20;;
52956;SDS011;38819;42.692;23.342;2023-09-19T13:43:07;8.20;;;5.00;;
52956;SDS011;38819;42.692;23.342;2023-09-19T13:45:33;7.85;;;4.45;;
52956;SDS011;38819;42.692;23.342;2023-09-19T13:47:59;9.40;;;4.57;;
52956;SDS011;38819;42.692;23.342;2023-09-19T13:50:24;9.52;;;4.28;;
52956;SDS011;38819;42.692;23.342;2023-09-19T13:52:52;7.63;;;4.47;;
52956;SDS011;38819;42.692;23.342;2023-09-19T13:55:18;7.63;;;4.05;;
52956;SDS011;38819;42.692;23.342;2023-09-19T13:57:48;8.77;;;4.65;;
52956;SDS011;38819;42.692;23.342;2023-09-19T14:00:15;7.47;;;4.30;;
52956;SDS011;38819;42.692;23.342;2023-09-19T14:02:41;5.05;;;4.30;;
52956;SDS011;38819;42.692;23.342;2023-09-19T14:05:09;5.85;;;4.72;;
52956;SDS011;38819;42.692;23.342;2023-09-19T14:07:37;7.82;;;4.47;;
52956;SDS011;38819;42.692;23.342;2023-09-19T14:10:03;9.25;;;5.10;;
52956;SDS011;38819;42.692;23.342;2023-09-19T14:12:29;9.52;;;4.85;;
52956;SDS011;38819;42.692;23.342;2023-09-19T14:14:55;12.50;;;5.13;;
52956;SDS011;38819;42.692;23.342;2023-09-19T14:17:21;8.85;;;4.45;;
52956;SDS011;38819;42.692;23.342;2023-09-19T14:19:46;12.43;;;5.22;;
52956;SDS011;38819;42.692;23.342;2023-09-19T14:22:12;6.65;;;4.40;;
52956;SDS011;38819;42.692;23.342;2023-09-19T14:24:39;4.75;;;3.90;;
52956;SDS011;38819;42.692;23.342;2023-09-19T14:27:06;7.50;;;5.15;;
52956;SDS011;38819;42.692;23.342;2023-09-19T14:29:34;11.77;;;4.47;;
52956;SDS011;38819;42.692;23.342;2023-09-19T14:31:59;5.57;;;4.75;;
52956;SDS011;38819;42.692;23.342;2023-09-19T14:34:24;9.40;;;4.85;;
52956;SDS011;38819;42.692;23.342;2023-09-19T14:36:50;14.50;;;5.20;;
52956;SDS011;38819;42.692;23.342;2023-09-19T14:39:15;9.45;;;4.90;;
52956;SDS011;38819;42.692;23.342;2023-09-19T14:41:41;11.38;;;4.90;;
52956;SDS011;38819;42.692;23.342;2023-09-19T14:44:06;7.22;;;4.43;;
52956;SDS011;38819;42.692;23.342;2023-09-19T14:46:32;7.63;;;5.00;;
52956;SDS011;38819;42.692;23.342;2023-09-19T14:48:58;19.90;;;5.95;;
52956;SDS011;38819;42.692;23.342;2023-09-19T14:51:29;14.05;;;4.70;;
52956;SDS011;38819;42.692;23.342;2023-09-19T14:53:54;9.45;;;4.95;;
52956;SDS011;38819;42.692;23.342;2023-09-19T14:56:20;8.25;;;5.28;;
52956;SDS011;38819;42.692;23.342;2023-09-19T14:58:49;7.65;;;4.80;;
52956;SDS011;38819;42.692;23.342;2023-09-19T15:01:14;5.25;;;4.45;;
52956;SDS011;38819;42.692;23.342;2023-09-19T15:03:40;10.00;;;4.68;;
52956;SDS011;38819;42.692;23.342;2023-09-19T15:06:08;6.80;;;5.20;;
52956;SDS011;38819;42.692;23.342;2023-09-19T15:08:35;8.55;;;5.20;;
52956;SDS011;38819;42.692;23.342;2023-09-19T15:11:06;8.77;;;5.35;;
52956;SDS011;38819;42.692;23.342;2023-09-19T15:13:32;7.80;;;4.50;;
52956;SDS011;38819;42.692;23.342;2023-09-19T15:16:01;15.15;;;6.10;;
52956;SDS011;38819;42.692;23.342;2023-09-19T15:18:30;9.63;;;5.05;;
52956;SDS011;38819;42.692;23.342;2023-09-19T15:21:01;12.68;;;5.43;;
52956;SDS011;38819;42.692;23.342;2023-09-19T15:23:26;9.27;;;5.25;;
52956;SDS011;38819;42.692;23.342;2023-09-19T15:25:54;10.93;;;4.95;;
52956;SDS011;38819;42.692;23.342;2023-09-19T15:28:20;12.77;;;5.30;;
52956;SDS011;38819;42.692;23.342;2023-09-19T15:30:48;5.20;;;4.70;;
52956;SDS011;38819;42.692;23.342;2023-09-19T15:33:22;7.97;;;4.80;;
52956;SDS011;38819;42.692;23.342;2023-09-19T15:35:47;11.73;;;4.93;;
52956;SDS011;38819;42.692;23.342;2023-09-19T15:38:13;8.25;;;5.25;;
52956;SDS011;38819;42.692;23.342;2023-09-19T15:40:45;12.90;;;5.72;;
52956;SDS011;38819;42.692;23.342;2023-09-19T15:43:11;7.88;;;4.85;;
52956;SDS011;38819;42.692;23.342;2023-09-19T15:45:37;9.32;;;6.03;;
52956;SDS011;38819;42.692;23.342;2023-09-19T15:48:02;6.65;;;4.88;;
52956;SDS011;38819;42.692;23.342;2023-09-19T15:50:30;8.20;;;5.57;;
52956;SDS011;38819;42.692;23.342;2023-09-19T15:52:55;11.50;;;4.70;;
52956;SDS011;38819;42.692;23.342;2023-09-19T15:55:21;7.30;;;4.88;;
52956;SDS011;38819;42.692;23.342;2023-09-19T15:57:46;6.97;;;5.22;;
52956;SDS011;38819;42.692;23.342;2023-09-19T16:00:12;11.45;;;5.22;;